sensor_id;sensor_type;location;lat;lon;timestamp;pressure;altitude;pressure_sealevel;temperature;humidity
72585;BME280;60618;40.084;32.908;2022-10-30T00:01:05;90074.47;;;6.85;63.45
72585;BME280;60618;40.084;32.908;2022-10-30T00:03:32;90076.94;;;6.79;64.20
72585;BME280;60618;40.084;32.908;2022-10-30T00:05:58;90070.19;;;6.78;64.11
72585;BME280;60618;40.084;32.908;2022-10-30T00:08:29;90072.97;;;6.75;63.92
72585;BME280;60618;40.084;32.908;2022-10-30T00:10:56;90072.09;;;6.78;64.47
72585;BME280;60618;40.084;32.908;2022-10-30T00:13:23;90072.03;;;6.69;65.02
72585;BME280;60618;40.084;32.908;2022-10-30T00:15:52;90069.94;;;6.64;65.10
72585;BME280;60618;40.084;32.908;2022-10-30T00:18:19;90067.13;;;6.14;63.19
72585;BME280;60618;40.084;32.908;2022-10-30T00:20:47;90073.56;;;6.13;62.88
72585;BME280;60618;40.084;32.908;2022-10-30T00:23:14;90068.19;;;6.39;62.63
72585;BME280;60618;40.084;32.908;2022-10-30T00:25:41;90069.28;;;6.50;61.50
72585;BME280;60618;40.084;32.908;2022-10-30T00:28:07;90067.28;;;6.64;61.36
72585;BME280;60618;40.084;32.908;2022-10-30T00:30:34;90063.59;;;6.83;60.55
72585;BME280;60618;40.084;32.908;2022-10-30T00:33:02;90063.06;;;6.97;60.60
72585;BME280;60618;40.084;32.908;2022-10-30T00:35:29;90066.38;;;7.10;59.84
72585;BME280;60618;40.084;32.908;2022-10-30T00:37:56;90057.28;;;7.21;59.52
72585;BME280;60618;40.084;32.908;2022-10-30T00:40:23;90057.31;;;7.30;59.45
72585;BME280;60618;40.084;32.908;2022-10-30T00:42:50;90067.19;;;7.38;59.42
72585;BME280;60618;40.084;32.908;2022-10-30T00:45:17;90059.72;;;7.46;59.56
72585;BME280;60618;40.084;32.908;2022-10-30T00:47:56;90052.53;;;7.56;59.44
72585;BME280;60618;40.084;32.908;2022-10-30T00:50:28;90057.50;;;7.54;59.75
72585;BME280;60618;40.084;32.908;2022-10-30T00:53:08;90057.09;;;7.55;59.29
72585;BME280;60618;40.084;32.908;2022-10-30T00:55:44;90055.03;;;7.59;58.86
72585;BME280;60618;40.084;32.908;2022-10-30T00:58:16;90052.22;;;7.54;59.50
72585;BME280;60618;40.084;32.908;2022-10-30T01:00:50;90056.19;;;7.49;59.73
72585;BME280;60618;40.084;32.908;2022-10-30T01:03:19;90053.25;;;7.47;59.91
72585;BME280;60618;40.084;32.908;2022-10-30T01:05:51;90053.22;;;7.38;60.49
72585;BME280;60618;40.084;32.908;2022-10-30T01:08:20;90057.16;;;7.33;60.87
72585;BME280;60618;40.084;32.908;2022-10-30T01:10:47;90056.44;;;7.33;60.98
72585;BME280;60618;40.084;32.908;2022-10-30T01:13:16;90050.09;;;7.30;61.53
72585;BME280;60618;40.084;32.908;2022-10-30T01:24:12;90050.63;;;7.16;61.52
72585;BME280;60618;40.084;32.908;2022-10-30T01:27:00;90047.16;;;7.28;61.53
72585;BME280;60618;40.084;32.908;2022-10-30T01:35:44;90041.53;;;7.26;61.23
72585;BME280;60618;40.084;32.908;2022-10-30T01:38:18;90041.69;;;7.23;62.58
72585;BME280;60618;40.084;32.908;2022-10-30T01:40:47;90042.66;;;7.07;63.23
72585;BME280;60618;40.084;32.908;2022-10-30T01:43:14;90044.09;;;6.68;65.54
72585;BME280;60618;40.084;32.908;2022-10-30T01:48:48;90046.44;;;6.66;65.33
72585;BME280;60618;40.084;32.908;2022-10-30T01:54:26;90055.13;;;6.44;66.82
72585;BME280;60618;40.084;32.908;2022-10-30T01:57:22;90041.72;;;6.39;67.06
72585;BME280;60618;40.084;32.908;2022-10-30T02:00:05;90047.19;;;6.44;66.08
72585;BME280;60618;40.084;32.908;2022-10-30T02:02:33;90040.41;;;6.43;66.47
72585;BME280;60618;40.084;32.908;2022-10-30T02:05:01;90039.53;;;6.46;67.19
72585;BME280;60618;40.084;32.908;2022-10-30T02:07:29;90032.78;;;6.45;66.68
72585;BME280;60618;40.084;32.908;2022-10-30T02:09:56;90033.41;;;6.28;67.53
72585;BME280;60618;40.084;32.908;2022-10-30T02:12:23;90029.28;;;6.05;69.26
72585;BME280;60618;40.084;32.908;2022-10-30T02:14:53;90029.72;;;6.03;69.29
72585;BME280;60618;40.084;32.908;2022-10-30T02:17:21;90038.41;;;6.04;69.00
72585;BME280;60618;40.084;32.908;2022-10-30T02:19:48;90038.06;;;6.02;69.00
72585;BME280;60618;40.084;32.908;2022-10-30T02:22:15;90033.44;;;5.93;68.64
72585;BME280;60618;40.084;32.908;2022-10-30T02:24:44;90034.34;;;5.77;67.80
72585;BME280;60618;40.084;32.908;2022-10-30T02:27:11;90043.66;;;5.69;68.55
72585;BME280;60618;40.084;32.908;2022-10-30T02:29:37;90038.88;;;5.77;68.46
72585;BME280;60618;40.084;32.908;2022-10-30T02:32:04;90037.63;;;5.68;67.19
72585;BME280;60618;40.084;32.908;2022-10-30T02:34:31;90035.09;;;5.65;66.64
72585;BME280;60618;40.084;32.908;2022-10-30T02:36:58;90039.41;;;5.84;65.72
72585;BME280;60618;40.084;32.908;2022-10-30T02:39:25;90044.53;;;6.01;65.33
72585;BME280;60618;40.084;32.908;2022-10-30T02:41:52;90047.81;;;6.05;65.20
72585;BME280;60618;40.084;32.908;2022-10-30T02:44:18;90041.56;;;5.98;66.00
72585;BME280;60618;40.084;32.908;2022-10-30T02:46:45;90044.47;;;5.91;66.20
72585;BME280;60618;40.084;32.908;2022-10-30T02:49:12;90039.00;;;6.08;65.44
72585;BME280;60618;40.084;32.908;2022-10-30T02:51:39;90036.72;;;6.19;65.11
72585;BME280;60618;40.084;32.908;2022-10-30T02:54:07;90042.44;;;5.95;67.70
72585;BME280;60618;40.084;32.908;2022-10-30T02:56:34;90041.97;;;5.75;68.75
72585;BME280;60618;40.084;32.908;2022-10-30T02:59:00;90056.50;;;5.45;70.05
72585;BME280;60618;40.084;32.908;2022-10-30T03:01:28;90048.78;;;5.38;70.23
72585;BME280;60618;40.084;32.908;2022-10-30T03:03:55;90044.59;;;5.28;69.78
72585;BME280;60618;40.084;32.908;2022-10-30T03:06:22;90055.38;;;5.08;68.41
72585;BME280;60618;40.084;32.908;2022-10-30T03:08:49;90044.91;;;5.17;66.94
72585;BME280;60618;40.084;32.908;2022-10-30T03:11:18;90046.69;;;5.33;66.23
72585;BME280;60618;40.084;32.908;2022-10-30T03:13:46;90052.25;;;5.48;66.16
72585;BME280;60618;40.084;32.908;2022-10-30T03:16:16;90045.09;;;5.48;65.59
72585;BME280;60618;40.084;32.908;2022-10-30T03:18:43;90047.69;;;5.61;65.66
72585;BME280;60618;40.084;32.908;2022-10-30T03:21:13;90045.66;;;5.78;65.40
72585;BME280;60618;40.084;32.908;2022-10-30T03:23:40;90045.94;;;5.92;65.56
72585;BME280;60618;40.084;32.908;2022-10-30T03:26:08;90051.72;;;6.00;64.84
72585;BME280;60618;40.084;32.908;2022-10-30T03:28:35;90045.84;;;6.18;64.69
72585;BME280;60618;40.084;32.908;2022-10-30T03:31:04;90042.66;;;6.23;64.47
72585;BME280;60618;40.084;32.908;2022-10-30T03:33:32;90045.16;;;6.05;66.03
72585;BME280;60618;40.084;32.908;2022-10-30T03:36:01;90051.31;;;5.89;69.08
72585;BME280;60618;40.084;32.908;2022-10-30T03:38:28;90056.41;;;5.49;68.37
72585;BME280;60618;40.084;32.908;2022-10-30T03:40:55;90046.56;;;5.49;67.29
72585;BME280;60618;40.084;32.908;2022-10-30T03:43:22;90053.34;;;5.37;66.85
72585;BME280;60618;40.084;32.908;2022-10-30T03:45:52;90043.41;;;5.29;66.47
72585;BME280;60618;40.084;32.908;2022-10-30T03:48:22;90046.94;;;5.13;66.47
72585;BME280;60618;40.084;32.908;2022-10-30T03:50:51;90052.81;;;5.43;65.99
72585;BME280;60618;40.084;32.908;2022-10-30T03:53:18;90051.28;;;5.54;64.94
72585;BME280;60618;40.084;32.908;2022-10-30T03:55:45;90043.59;;;5.60;65.14
72585;BME280;60618;40.084;32.908;2022-10-30T03:58:12;90038.59;;;5.62;64.85
72585;BME280;60618;40.084;32.908;2022-10-30T04:00:39;90042.50;;;5.70;64.66
72585;BME280;60618;40.084;32.908;2022-10-30T04:03:07;90035.66;;;5.60;65.60
72585;BME280;60618;40.084;32.908;2022-10-30T04:05:35;90037.88;;;5.61;65.24
72585;BME280;60618;40.084;32.908;2022-10-30T04:08:06;90036.91;;;5.55;65.69
72585;BME280;60618;40.084;32.908;2022-10-30T04:10:35;90043.19;;;5.36;67.65
72585;BME280;60618;40.084;32.908;2022-10-30T04:13:05;90037.63;;;5.21;67.50
72585;BME280;60618;40.084;32.908;2022-10-30T04:15:33;90033.94;;;5.31;65.91
72585;BME280;60618;40.084;32.908;2022-10-30T04:18:03;90028.91;;;5.59;65.11
72585;BME280;60618;40.084;32.908;2022-10-30T04:20:31;90034.50;;;5.61;66.65
72585;BME280;60618;40.084;32.908;2022-10-30T04:23:00;90035.00;;;5.56;67.24
72585;BME280;60618;40.084;32.908;2022-10-30T04:25:29;90031.41;;;5.75;66.99
72585;BME280;60618;40.084;32.908;2022-10-30T04:27:56;90035.94;;;6.31;66.46
72585;BME280;60618;40.084;32.908;2022-10-30T04:30:24;90036.63;;;7.06;67.32
72585;BME280;60618;40.084;32.908;2022-10-30T04:32:55;90031.50;;;7.80;65.68
72585;BME280;60618;40.084;32.908;2022-10-30T04:35:26;90029.47;;;8.11;62.00
72585;BME280;60618;40.084;32.908;2022-10-30T04:37:58;90027.72;;;8.36;59.98
72585;BME280;60618;40.084;32.908;2022-10-30T04:40:27;90025.91;;;8.23;59.96
72585;BME280;60618;40.084;32.908;2022-10-30T04:42:55;90030.47;;;7.86;59.13
72585;BME280;60618;40.084;32.908;2022-10-30T04:45:23;90038.69;;;7.70;59.74
72585;BME280;60618;40.084;32.908;2022-10-30T04:47:50;90031.31;;;7.56;59.99
72585;BME280;60618;40.084;32.908;2022-10-30T04:50:17;90034.84;;;7.62;59.50
72585;BME280;60618;40.084;32.908;2022-10-30T04:52:44;90034.13;;;7.80;60.36
72585;BME280;60618;40.084;32.908;2022-10-30T04:55:13;90036.22;;;7.94;59.27
72585;BME280;60618;40.084;32.908;2022-10-30T04:57:40;90032.97;;;7.99;58.80
72585;BME280;60618;40.084;32.908;2022-10-30T05:00:07;90032.41;;;8.04;58.68
72585;BME280;60618;40.084;32.908;2022-10-30T05:02:38;90035.63;;;8.17;58.31
72585;BME280;60618;40.084;32.908;2022-10-30T05:05:05;90038.00;;;8.24;57.59
72585;BME280;60618;40.084;32.908;2022-10-30T05:07:32;90033.56;;;8.31;57.52
72585;BME280;60618;40.084;32.908;2022-10-30T05:09:58;90038.59;;;8.29;57.59
72585;BME280;60618;40.084;32.908;2022-10-30T05:12:25;90047.41;;;7.80;58.19
72585;BME280;60618;40.084;32.908;2022-10-30T05:14:52;90053.03;;;7.32;59.15
72585;BME280;60618;40.084;32.908;2022-10-30T05:17:19;90049.44;;;7.17;59.72
72585;BME280;60618;40.084;32.908;2022-10-30T05:19:46;90054.63;;;7.21;60.07
72585;BME280;60618;40.084;32.908;2022-10-30T05:22:13;90060.75;;;7.49;59.42
72585;BME280;60618;40.084;32.908;2022-10-30T05:24:40;90052.56;;;7.74;58.51
72585;BME280;60618;40.084;32.908;2022-10-30T05:27:07;90055.97;;;7.93;57.87
72585;BME280;60618;40.084;32.908;2022-10-30T05:29:33;90054.50;;;8.10;57.88
72585;BME280;60618;40.084;32.908;2022-10-30T05:32:00;90062.75;;;8.21;58.01
72585;BME280;60618;40.084;32.908;2022-10-30T05:34:30;90063.66;;;8.28;57.15
72585;BME280;60618;40.084;32.908;2022-10-30T05:37:06;90062.59;;;8.07;57.39
72585;BME280;60618;40.084;32.908;2022-10-30T05:39:33;90062.72;;;7.76;58.22
72585;BME280;60618;40.084;32.908;2022-10-30T05:42:05;90066.97;;;7.64;58.47
72585;BME280;60618;40.084;32.908;2022-10-30T05:44:38;90076.50;;;7.52;58.53
72585;BME280;60618;40.084;32.908;2022-10-30T05:47:28;90059.72;;;7.46;59.31
72585;BME280;60618;40.084;32.908;2022-10-30T05:49:55;90072.16;;;7.77;58.95
72585;BME280;60618;40.084;32.908;2022-10-30T05:52:22;90078.97;;;8.05;57.95
72585;BME280;60618;40.084;32.908;2022-10-30T05:54:51;90075.72;;;8.10;57.14
72585;BME280;60618;40.084;32.908;2022-10-30T05:57:18;90070.72;;;8.21;56.60
72585;BME280;60618;40.084;32.908;2022-10-30T05:59:45;90069.56;;;8.50;56.89
72585;BME280;60618;40.084;32.908;2022-10-30T06:02:12;90066.75;;;8.53;56.29
72585;BME280;60618;40.084;32.908;2022-10-30T06:04:39;90063.69;;;8.37;56.21
72585;BME280;60618;40.084;32.908;2022-10-30T06:07:06;90071.59;;;8.00;56.86
72585;BME280;60618;40.084;32.908;2022-10-30T06:09:33;90068.22;;;8.27;56.99
72585;BME280;60618;40.084;32.908;2022-10-30T06:11:59;90069.56;;;8.50;56.01
72585;BME280;60618;40.084;32.908;2022-10-30T06:14:26;90064.06;;;8.90;55.04
72585;BME280;60618;40.084;32.908;2022-10-30T06:16:53;90051.59;;;9.05;54.82
72585;BME280;60618;40.084;32.908;2022-10-30T06:19:20;90060.88;;;9.19;55.03
72585;BME280;60618;40.084;32.908;2022-10-30T06:21:47;90060.81;;;9.28;54.69
72585;BME280;60618;40.084;32.908;2022-10-30T06:24:14;90055.34;;;9.32;54.46
72585;BME280;60618;40.084;32.908;2022-10-30T06:26:41;90063.66;;;9.16;54.67
72585;BME280;60618;40.084;32.908;2022-10-30T06:29:07;90060.03;;;8.95;54.80
72585;BME280;60618;40.084;32.908;2022-10-30T06:31:34;90062.97;;;8.97;55.15
72585;BME280;60618;40.084;32.908;2022-10-30T06:34:01;90070.03;;;9.18;55.51
72585;BME280;60618;40.084;32.908;2022-10-30T06:36:28;90061.81;;;9.40;55.46
72585;BME280;60618;40.084;32.908;2022-10-30T06:38:56;90065.97;;;9.65;54.42
72585;BME280;60618;40.084;32.908;2022-10-30T06:41:23;90059.66;;;9.86;53.88
72585;BME280;60618;40.084;32.908;2022-10-30T06:43:55;90055.38;;;9.89;53.86
72585;BME280;60618;40.084;32.908;2022-10-30T06:46:22;90052.34;;;9.96;54.03
72585;BME280;60618;40.084;32.908;2022-10-30T06:48:59;90053.03;;;10.30;54.02
72585;BME280;60618;40.084;32.908;2022-10-30T06:51:26;90042.97;;;10.48;53.51
72585;BME280;60618;40.084;32.908;2022-10-30T06:53:53;90044.44;;;10.35;53.78
72585;BME280;60618;40.084;32.908;2022-10-30T06:56:20;90048.44;;;10.06;54.76
72585;BME280;60618;40.084;32.908;2022-10-30T06:58:47;90044.75;;;9.56;55.35
72585;BME280;60618;40.084;32.908;2022-10-30T07:01:14;90046.25;;;9.81;56.71
72585;BME280;60618;40.084;32.908;2022-10-30T07:03:41;90046.00;;;10.17;55.82
72585;BME280;60618;40.084;32.908;2022-10-30T07:06:07;90035.16;;;10.60;55.57
72585;BME280;60618;40.084;32.908;2022-10-30T07:08:36;90036.50;;;10.79;53.38
72585;BME280;60618;40.084;32.908;2022-10-30T07:11:02;90041.34;;;10.66;54.25
72585;BME280;60618;40.084;32.908;2022-10-30T07:13:31;90043.63;;;10.43;54.46
72585;BME280;60618;40.084;32.908;2022-10-30T07:16:01;90040.53;;;10.74;54.23
72585;BME280;60618;40.084;32.908;2022-10-30T07:18:27;90040.16;;;10.52;55.17
72585;BME280;60618;40.084;32.908;2022-10-30T07:20:54;90032.16;;;10.52;54.75
72585;BME280;60618;40.084;32.908;2022-10-30T07:23:22;90034.97;;;10.48;54.81
72585;BME280;60618;40.084;32.908;2022-10-30T07:25:49;90036.56;;;10.55;55.03
72585;BME280;60618;40.084;32.908;2022-10-30T07:28:16;90031.78;;;10.59;55.58
72585;BME280;60618;40.084;32.908;2022-10-30T07:30:43;90033.09;;;10.78;54.67
72585;BME280;60618;40.084;32.908;2022-10-30T07:33:09;90036.59;;;10.99;54.11
72585;BME280;60618;40.084;32.908;2022-10-30T07:35:36;90034.44;;;11.03;53.10
72585;BME280;60618;40.084;32.908;2022-10-30T07:38:05;90041.16;;;11.14;53.21
72585;BME280;60618;40.084;32.908;2022-10-30T07:40:32;90039.88;;;11.09;52.58
72585;BME280;60618;40.084;32.908;2022-10-30T07:43:01;90045.69;;;11.07;52.95
72585;BME280;60618;40.084;32.908;2022-10-30T07:45:29;90033.91;;;10.99;53.42
72585;BME280;60618;40.084;32.908;2022-10-30T07:47:56;90033.16;;;11.14;53.39
72585;BME280;60618;40.084;32.908;2022-10-30T07:50:24;90033.97;;;11.20;52.17
72585;BME280;60618;40.084;32.908;2022-10-30T07:52:50;90030.75;;;11.30;51.68
72585;BME280;60618;40.084;32.908;2022-10-30T07:55:20;90023.03;;;11.32;52.19
72585;BME280;60618;40.084;32.908;2022-10-30T07:57:50;90022.00;;;11.30;52.10
72585;BME280;60618;40.084;32.908;2022-10-30T08:00:17;90023.47;;;11.46;50.95
72585;BME280;60618;40.084;32.908;2022-10-30T08:02:48;90026.16;;;11.81;50.84
72585;BME280;60618;40.084;32.908;2022-10-30T08:05:15;90016.69;;;12.20;49.22
72585;BME280;60618;40.084;32.908;2022-10-30T08:07:45;90026.56;;;11.94;49.29
72585;BME280;60618;40.084;32.908;2022-10-30T08:10:12;90016.28;;;11.87;49.36
72585;BME280;60618;40.084;32.908;2022-10-30T08:12:39;90022.28;;;12.02;49.92
72585;BME280;60618;40.084;32.908;2022-10-30T08:15:07;90016.81;;;12.11;49.78
72585;BME280;60618;40.084;32.908;2022-10-30T08:17:40;90023.88;;;12.35;48.04
72585;BME280;60618;40.084;32.908;2022-10-30T08:20:08;90019.63;;;12.23;47.68
72585;BME280;60618;40.084;32.908;2022-10-30T08:22:43;90013.69;;;12.33;48.33
72585;BME280;60618;40.084;32.908;2022-10-30T08:25:10;90017.19;;;12.45;46.88
72585;BME280;60618;40.084;32.908;2022-10-30T08:27:37;90013.91;;;12.82;46.96
72585;BME280;60618;40.084;32.908;2022-10-30T08:30:04;90012.59;;;12.71;46.83
72585;BME280;60618;40.084;32.908;2022-10-30T08:32:31;90017.84;;;12.60;46.42
72585;BME280;60618;40.084;32.908;2022-10-30T08:34:58;90008.41;;;12.65;47.24
72585;BME280;60618;40.084;32.908;2022-10-30T08:37:24;90010.75;;;12.57;46.65
72585;BME280;60618;40.084;32.908;2022-10-30T08:39:53;90007.78;;;12.75;46.48
72585;BME280;60618;40.084;32.908;2022-10-30T08:42:20;90012.78;;;12.94;45.61
72585;BME280;60618;40.084;32.908;2022-10-30T08:44:47;90004.00;;;12.88;44.13
72585;BME280;60618;40.084;32.908;2022-10-30T08:47:13;89999.44;;;13.20;43.76
72585;BME280;60618;40.084;32.908;2022-10-30T08:49:40;89994.63;;;13.29;43.33
72585;BME280;60618;40.084;32.908;2022-10-30T08:52:08;89996.13;;;13.30;43.00
72585;BME280;60618;40.084;32.908;2022-10-30T08:54:34;89996.50;;;13.55;42.60
72585;BME280;60618;40.084;32.908;2022-10-30T08:57:01;89998.00;;;13.61;42.49
72585;BME280;60618;40.084;32.908;2022-10-30T08:59:28;89994.03;;;13.88;41.36
72585;BME280;60618;40.084;32.908;2022-10-30T09:01:57;89984.19;;;14.28;41.23
72585;BME280;60618;40.084;32.908;2022-10-30T09:04:25;89981.66;;;14.73;42.14
72585;BME280;60618;40.084;32.908;2022-10-30T09:06:51;89989.94;;;14.58;39.65
72585;BME280;60618;40.084;32.908;2022-10-30T09:09:18;89985.41;;;14.22;39.14
72585;BME280;60618;40.084;32.908;2022-10-30T09:11:46;89990.66;;;13.99;37.40
72585;BME280;60618;40.084;32.908;2022-10-30T09:14:13;89984.78;;;13.89;38.77
72585;BME280;60618;40.084;32.908;2022-10-30T09:16:40;89971.31;;;14.32;38.88
72585;BME280;60618;40.084;32.908;2022-10-30T09:19:08;89969.75;;;14.80;38.89
72585;BME280;60618;40.084;32.908;2022-10-30T09:21:40;89966.53;;;14.47;37.74
72585;BME280;60618;40.084;32.908;2022-10-30T09:24:09;89972.53;;;14.37;37.72
72585;BME280;60618;40.084;32.908;2022-10-30T09:27:11;89952.38;;;14.53;37.67
72585;BME280;60618;40.084;32.908;2022-10-30T09:29:38;89961.47;;;14.83;38.10
72585;BME280;60618;40.084;32.908;2022-10-30T09:32:09;89969.72;;;14.57;37.65
72585;BME280;60618;40.084;32.908;2022-10-30T09:34:37;89962.91;;;14.67;38.84
72585;BME280;60618;40.084;32.908;2022-10-30T09:37:04;89970.13;;;14.44;38.22
72585;BME280;60618;40.084;32.908;2022-10-30T09:39:31;89959.50;;;14.67;37.93
72585;BME280;60618;40.084;32.908;2022-10-30T09:48:25;89947.34;;;14.94;33.24
72585;BME280;60618;40.084;32.908;2022-10-30T09:56:50;89942.69;;;15.39;34.00
72585;BME280;60618;40.084;32.908;2022-10-30T10:00:22;89935.53;;;15.81;32.74
72585;BME280;60618;40.084;32.908;2022-10-30T10:05:20;89946.22;;;15.98;32.50
72585;BME280;60618;40.084;32.908;2022-10-30T10:07:50;89930.28;;;16.16;30.49
72585;BME280;60618;40.084;32.908;2022-10-30T10:10:41;89923.91;;;16.20;28.61
72585;BME280;60618;40.084;32.908;2022-10-30T10:16:16;89924.63;;;15.23;28.04
72585;BME280;60618;40.084;32.908;2022-10-30T10:19:19;89930.22;;;15.47;25.83
72585;BME280;60618;40.084;32.908;2022-10-30T10:21:56;89935.53;;;15.81;26.12
72585;BME280;60618;40.084;32.908;2022-10-30T10:24:30;89925.75;;;16.41;28.00
72585;BME280;60618;40.084;32.908;2022-10-30T10:41:57;89908.75;;;17.35;27.00
72585;BME280;60618;40.084;32.908;2022-10-30T10:44:45;89901.91;;;17.58;26.15
72585;BME280;60618;40.084;32.908;2022-10-30T10:52:52;89881.09;;;16.33;26.41
72585;BME280;60618;40.084;32.908;2022-10-30T10:55:23;89882.72;;;16.47;26.28
72585;BME280;60618;40.084;32.908;2022-10-30T10:57:57;89884.06;;;16.65;26.29
72585;BME280;60618;40.084;32.908;2022-10-30T11:00:27;89876.00;;;16.65;26.92
72585;BME280;60618;40.084;32.908;2022-10-30T11:03:04;89871.53;;;15.91;28.01
72585;BME280;60618;40.084;32.908;2022-10-30T11:05:52;89873.06;;;15.69;26.88
72585;BME280;60618;40.084;32.908;2022-10-30T11:08:27;89865.47;;;15.79;28.15
72585;BME280;60618;40.084;32.908;2022-10-30T11:11:02;89866.34;;;16.04;27.55
72585;BME280;60618;40.084;32.908;2022-10-30T11:13:36;89863.16;;;16.46;27.44
72585;BME280;60618;40.084;32.908;2022-10-30T11:18:35;89856.03;;;15.55;27.86
72585;BME280;60618;40.084;32.908;2022-10-30T11:21:06;89850.38;;;15.59;27.03
72585;BME280;60618;40.084;32.908;2022-10-30T11:23:37;89851.53;;;15.80;26.09
72585;BME280;60618;40.084;32.908;2022-10-30T11:29:12;89849.94;;;16.13;25.27
72585;BME280;60618;40.084;32.908;2022-10-30T11:31:41;89847.81;;;16.00;24.12
72585;BME280;60618;40.084;32.908;2022-10-30T11:36:45;89851.16;;;16.06;24.60
72585;BME280;60618;40.084;32.908;2022-10-30T11:39:30;89839.63;;;15.70;24.98
72585;BME280;60618;40.084;32.908;2022-10-30T11:44:33;89842.94;;;15.93;25.88
72585;BME280;60618;40.084;32.908;2022-10-30T11:47:02;89837.44;;;16.15;24.57
72585;BME280;60618;40.084;32.908;2022-10-30T11:49:50;89846.72;;;16.56;23.29
72585;BME280;60618;40.084;32.908;2022-10-30T11:52:20;89836.16;;;16.99;23.92
72585;BME280;60618;40.084;32.908;2022-10-30T11:54:53;89833.47;;;16.99;22.98
72585;BME280;60618;40.084;32.908;2022-10-30T11:57:40;89835.13;;;15.95;24.60
72585;BME280;60618;40.084;32.908;2022-10-30T12:00:22;89832.94;;;15.88;25.89
72585;BME280;60618;40.084;32.908;2022-10-30T12:02:52;89827.19;;;15.67;23.93
72585;BME280;60618;40.084;32.908;2022-10-30T12:05:40;89828.56;;;15.91;23.67
72585;BME280;60618;40.084;32.908;2022-10-30T12:10:48;89824.94;;;16.24;24.98
72585;BME280;60618;40.084;32.908;2022-10-30T12:13:20;89831.72;;;16.71;25.24
72585;BME280;60618;40.084;32.908;2022-10-30T12:15:50;89819.56;;;17.19;24.38
72585;BME280;60618;40.084;32.908;2022-10-30T12:18:29;89809.09;;;16.86;25.31
72585;BME280;60618;40.084;32.908;2022-10-30T12:20:56;89824.00;;;17.17;24.98
72585;BME280;60618;40.084;32.908;2022-10-30T12:23:25;89823.59;;;17.31;24.64
72585;BME280;60618;40.084;32.908;2022-10-30T12:26:06;89816.22;;;16.83;25.10
72585;BME280;60618;40.084;32.908;2022-10-30T12:28:37;89818.03;;;16.69;25.58
72585;BME280;60618;40.084;32.908;2022-10-30T12:31:29;89804.56;;;16.75;24.75
72585;BME280;60618;40.084;32.908;2022-10-30T12:34:08;89811.88;;;16.44;26.00
72585;BME280;60618;40.084;32.908;2022-10-30T12:36:46;89804.47;;;16.15;25.81
72585;BME280;60618;40.084;32.908;2022-10-30T12:39:28;89805.50;;;16.06;26.26
72585;BME280;60618;40.084;32.908;2022-10-30T12:42:05;89799.44;;;16.00;26.37
72585;BME280;60618;40.084;32.908;2022-10-30T12:44:39;89802.44;;;15.85;26.41
72585;BME280;60618;40.084;32.908;2022-10-30T12:47:17;89806.94;;;16.07;26.43
72585;BME280;60618;40.084;32.908;2022-10-30T12:50:00;89803.97;;;16.16;25.94
72585;BME280;60618;40.084;32.908;2022-10-30T12:52:58;89806.53;;;16.33;26.53
72585;BME280;60618;40.084;32.908;2022-10-30T12:55:39;89797.75;;;16.68;25.57
72585;BME280;60618;40.084;32.908;2022-10-30T12:58:17;89807.16;;;17.11;25.67
72585;BME280;60618;40.084;32.908;2022-10-30T13:00:53;89805.88;;;17.17;25.15
72585;BME280;60618;40.084;32.908;2022-10-30T13:03:38;89809.00;;;16.97;25.56
72585;BME280;60618;40.084;32.908;2022-10-30T13:06:15;89807.69;;;16.43;25.85
72585;BME280;60618;40.084;32.908;2022-10-30T13:14:58;89805.09;;;16.62;25.32
72585;BME280;60618;40.084;32.908;2022-10-30T13:17:28;89801.78;;;16.51;25.01
72585;BME280;60618;40.084;32.908;2022-10-30T13:19:55;89807.97;;;16.40;25.45
72585;BME280;60618;40.084;32.908;2022-10-30T13:22:26;89805.41;;;16.23;25.63
72585;BME280;60618;40.084;32.908;2022-10-30T13:25:23;89808.06;;;16.29;25.03
72585;BME280;60618;40.084;32.908;2022-10-30T13:27:59;89803.09;;;16.38;25.20
72585;BME280;60618;40.084;32.908;2022-10-30T13:30:38;89804.13;;;16.30;25.06
72585;BME280;60618;40.084;32.908;2022-10-30T13:35:59;89805.94;;;16.16;25.59
72585;BME280;60618;40.084;32.908;2022-10-30T13:38:59;89804.22;;;16.18;25.25
72585;BME280;60618;40.084;32.908;2022-10-30T13:52:13;89804.47;;;15.74;25.12
72585;BME280;60618;40.084;32.908;2022-10-30T13:54:57;89804.91;;;15.78;25.20
72585;BME280;60618;40.084;32.908;2022-10-30T13:57:42;89807.63;;;15.72;25.21
72585;BME280;60618;40.084;32.908;2022-10-30T14:00:21;89809.38;;;15.58;25.65
72585;BME280;60618;40.084;32.908;2022-10-30T14:03:11;89815.78;;;15.44;25.46
72585;BME280;60618;40.084;32.908;2022-10-30T14:06:09;89810.84;;;15.54;25.78
72585;BME280;60618;40.084;32.908;2022-10-30T14:11:12;89799.09;;;15.74;24.84
72585;BME280;60618;40.084;32.908;2022-10-30T14:14:05;89810.66;;;15.99;25.07
72585;BME280;60618;40.084;32.908;2022-10-30T14:17:13;89801.94;;;16.28;24.29
72585;BME280;60618;40.084;32.908;2022-10-30T14:22:39;89802.59;;;15.99;25.00
72585;BME280;60618;40.084;32.908;2022-10-30T14:25:14;89803.91;;;15.81;23.57
72585;BME280;60618;40.084;32.908;2022-10-30T14:27:41;89795.19;;;15.69;23.96
72585;BME280;60618;40.084;32.908;2022-10-30T14:30:18;89794.47;;;15.74;24.01
72585;BME280;60618;40.084;32.908;2022-10-30T14:32:50;89798.13;;;15.71;24.83
72585;BME280;60618;40.084;32.908;2022-10-30T14:35:34;89795.25;;;15.64;25.66
72585;BME280;60618;40.084;32.908;2022-10-30T14:38:20;89794.00;;;15.53;26.24
72585;BME280;60618;40.084;32.908;2022-10-30T14:43:33;89795.53;;;15.43;27.16
72585;BME280;60618;40.084;32.908;2022-10-30T14:46:13;89791.66;;;15.39;27.30
72585;BME280;60618;40.084;32.908;2022-10-30T14:48:55;89796.28;;;15.32;27.55
72585;BME280;60618;40.084;32.908;2022-10-30T14:51:38;89784.38;;;15.22;27.86
72585;BME280;60618;40.084;32.908;2022-10-30T14:54:15;89800.50;;;15.17;27.97
72585;BME280;60618;40.084;32.908;2022-10-30T14:56:49;89798.31;;;15.10;28.08